Organ Cave, West Virginia
Current Conditions -  °F | °C
As of 5:15 AM on Sunday 25 Jan 2015 (Local Time) from KLWB Reporting Station
Overcast Overcast  
Wind Chill: 33°   Ceiling: 1600
Heat Index: 33°   Visibility: 10mi
Dew Point: 29°   Wind: 3mph
Humidity: 85%   Direction: 250°WSW
Pressure: 29.78"   Gusts: NA
Location:  37.7253°N, 80.4371°W
Report Text: KLWB 251015Z AUTO 25003KT 10SM OVC016 01/M01 A2978 RMK AO2 T00081015
Loading
Personal Weather Stations






























Interactive Weather Map New forecast layout! Learn more

10-Day Weather Forecast

Advertisements
Track Severe Weather on mobile